sensor_id;sensor_type;location;lat;lon;timestamp;pressure;altitude;pressure_sealevel;temperature;humidity
45813;BME280;31519;45.408;10.962;2022-08-03T00:02:19;100798.94;;;30.31;40.18
45813;BME280;31519;45.408;10.962;2022-08-03T00:04:47;100805.47;;;30.21;40.71
45813;BME280;31519;45.408;10.962;2022-08-03T00:07:15;100797.25;;;30.21;41.00
45813;BME280;31519;45.408;10.962;2022-08-03T00:09:43;100792.00;;;30.27;40.95
45813;BME280;31519;45.408;10.962;2022-08-03T00:12:11;100795.50;;;30.44;40.50
45813;BME280;31519;45.408;10.962;2022-08-03T00:14:40;100798.94;;;30.31;40.71
45813;BME280;31519;45.408;10.962;2022-08-03T00:17:08;100800.34;;;30.23;41.09
45813;BME280;31519;45.408;10.962;2022-08-03T00:19:36;100794.66;;;30.30;41.10
45813;BME280;31519;45.408;10.962;2022-08-03T00:22:04;100794.75;;;30.27;41.09
45813;BME280;31519;45.408;10.962;2022-08-03T00:24:32;100797.59;;;30.23;40.80
45813;BME280;31519;45.408;10.962;2022-08-03T00:27:03;100801.38;;;30.13;40.78
45813;BME280;31519;45.408;10.962;2022-08-03T00:29:31;100804.88;;;30.30;40.72
45813;BME280;31519;45.408;10.962;2022-08-03T00:31:59;100807.22;;;29.99;41.50
45813;BME280;31519;45.408;10.962;2022-08-03T00:34:29;100797.34;;;30.02;41.69
45813;BME280;31519;45.408;10.962;2022-08-03T00:37:18;100797.81;;;29.64;42.93
45813;BME280;31519;45.408;10.962;2022-08-03T00:39:46;100800.09;;;29.66;43.18
45813;BME280;31519;45.408;10.962;2022-08-03T00:42:14;100803.56;;;29.70;43.03
45813;BME280;31519;45.408;10.962;2022-08-03T00:44:43;100807.31;;;29.60;43.14
45813;BME280;31519;45.408;10.962;2022-08-03T00:47:14;100795.09;;;29.44;43.64
45813;BME280;31519;45.408;10.962;2022-08-03T00:49:42;100796.22;;;29.27;43.52
45813;BME280;31519;45.408;10.962;2022-08-03T00:52:12;100792.66;;;29.30;43.27
45813;BME280;31519;45.408;10.962;2022-08-03T00:54:42;100792.44;;;29.41;43.73
45813;BME280;31519;45.408;10.962;2022-08-03T00:57:10;100787.59;;;29.81;42.05
45813;BME280;31519;45.408;10.962;2022-08-03T00:59:38;100789.84;;;29.70;42.45
45813;BME280;31519;45.408;10.962;2022-08-03T01:02:07;100792.03;;;29.75;42.33
45813;BME280;31519;45.408;10.962;2022-08-03T01:04:35;100790.75;;;29.79;42.22
45813;BME280;31519;45.408;10.962;2022-08-03T01:10:13;100790.28;;;29.48;42.31
45813;BME280;31519;45.408;10.962;2022-08-03T01:13:03;100789.97;;;29.27;42.73
45813;BME280;31519;45.408;10.962;2022-08-03T01:16:02;100790.38;;;29.25;42.97
45813;BME280;31519;45.408;10.962;2022-08-03T01:27:22;100784.03;;;29.48;41.98
45813;BME280;31519;45.408;10.962;2022-08-03T01:30:07;100777.06;;;29.43;42.52
45813;BME280;31519;45.408;10.962;2022-08-03T01:32:38;100784.31;;;29.54;42.23
45813;BME280;31519;45.408;10.962;2022-08-03T01:35:49;100790.56;;;29.90;41.30
45813;BME280;31519;45.408;10.962;2022-08-03T01:38:34;100780.00;;;29.36;42.51
45813;BME280;31519;45.408;10.962;2022-08-03T01:41:20;100782.78;;;29.69;41.81
45813;BME280;31519;45.408;10.962;2022-08-03T01:43:50;100779.59;;;29.54;42.24
45813;BME280;31519;45.408;10.962;2022-08-03T01:46:41;100770.44;;;29.05;43.78
45813;BME280;31519;45.408;10.962;2022-08-03T01:49:16;100775.28;;;29.37;42.95
45813;BME280;31519;45.408;10.962;2022-08-03T01:51:46;100779.13;;;29.39;42.77
45813;BME280;31519;45.408;10.962;2022-08-03T01:54:35;100773.03;;;29.12;42.91
45813;BME280;31519;45.408;10.962;2022-08-03T01:57:04;100766.41;;;29.10;43.28
45813;BME280;31519;45.408;10.962;2022-08-03T01:59:34;100764.56;;;29.23;43.33
45813;BME280;31519;45.408;10.962;2022-08-03T02:02:04;100773.88;;;29.09;43.12
45813;BME280;31519;45.408;10.962;2022-08-03T02:04:55;100768.03;;;29.07;42.96
45813;BME280;31519;45.408;10.962;2022-08-03T02:07:26;100767.72;;;29.21;42.35
45813;BME280;31519;45.408;10.962;2022-08-03T02:09:57;100765.41;;;29.20;42.47
45813;BME280;31519;45.408;10.962;2022-08-03T02:12:29;100776.03;;;29.18;42.27
45813;BME280;31519;45.408;10.962;2022-08-03T02:14:59;100768.31;;;29.13;42.43
45813;BME280;31519;45.408;10.962;2022-08-03T02:17:29;100768.31;;;28.93;43.13
45813;BME280;31519;45.408;10.962;2022-08-03T02:20:11;100768.59;;;28.98;43.00
45813;BME280;31519;45.408;10.962;2022-08-03T02:22:42;100767.50;;;28.96;43.04
45813;BME280;31519;45.408;10.962;2022-08-03T02:25:12;100772.13;;;28.99;43.21
45813;BME280;31519;45.408;10.962;2022-08-03T02:27:51;100773.66;;;28.80;43.24
45813;BME280;31519;45.408;10.962;2022-08-03T02:30:26;100765.25;;;28.91;42.88
45813;BME280;31519;45.408;10.962;2022-08-03T02:32:58;100755.59;;;28.83;43.18
45813;BME280;31519;45.408;10.962;2022-08-03T02:35:28;100754.56;;;28.96;42.66
45813;BME280;31519;45.408;10.962;2022-08-03T02:38:00;100748.69;;;28.75;43.47
45813;BME280;31519;45.408;10.962;2022-08-03T02:40:31;100758.81;;;28.97;42.96
45813;BME280;31519;45.408;10.962;2022-08-03T02:43:04;100751.59;;;28.87;43.30
45813;BME280;31519;45.408;10.962;2022-08-03T02:45:43;100756.59;;;28.73;43.66
45813;BME280;31519;45.408;10.962;2022-08-03T02:48:17;100748.88;;;28.87;42.46
45813;BME280;31519;45.408;10.962;2022-08-03T02:50:46;100750.94;;;28.80;42.81
45813;BME280;31519;45.408;10.962;2022-08-03T02:53:16;100753.38;;;28.54;43.82
45813;BME280;31519;45.408;10.962;2022-08-03T02:55:48;100756.94;;;28.75;43.46
45813;BME280;31519;45.408;10.962;2022-08-03T02:58:18;100755.09;;;28.88;43.36
45813;BME280;31519;45.408;10.962;2022-08-03T03:00:51;100746.84;;;29.07;42.91
45813;BME280;31519;45.408;10.962;2022-08-03T03:03:21;100755.75;;;28.95;43.24
45813;BME280;31519;45.408;10.962;2022-08-03T03:05:52;100749.88;;;29.13;42.67
45813;BME280;31519;45.408;10.962;2022-08-03T03:08:26;100747.06;;;28.97;42.97
45813;BME280;31519;45.408;10.962;2022-08-03T03:10:58;100749.69;;;29.04;42.41
45813;BME280;31519;45.408;10.962;2022-08-03T03:13:28;100754.56;;;28.96;42.79
45813;BME280;31519;45.408;10.962;2022-08-03T03:15:59;100757.00;;;28.48;43.24
45813;BME280;31519;45.408;10.962;2022-08-03T03:18:30;100765.56;;;28.30;43.97
45813;BME280;31519;45.408;10.962;2022-08-03T03:21:02;100757.94;;;28.61;43.02
45813;BME280;31519;45.408;10.962;2022-08-03T03:23:34;100755.75;;;28.52;43.47
45813;BME280;31519;45.408;10.962;2022-08-03T03:26:04;100750.59;;;28.35;43.75
45813;BME280;31519;45.408;10.962;2022-08-03T03:28:33;100750.31;;;28.29;43.39
45813;BME280;31519;45.408;10.962;2022-08-03T03:31:06;100754.41;;;28.41;43.18
45813;BME280;31519;45.408;10.962;2022-08-03T03:33:36;100754.19;;;28.32;43.34
45813;BME280;31519;45.408;10.962;2022-08-03T03:36:06;100753.63;;;28.40;43.34
45813;BME280;31519;45.408;10.962;2022-08-03T03:38:35;100752.00;;;28.43;43.33
45813;BME280;31519;45.408;10.962;2022-08-03T03:41:04;100756.31;;;28.44;43.69
45813;BME280;31519;45.408;10.962;2022-08-03T03:43:32;100753.59;;;28.63;43.17
45813;BME280;31519;45.408;10.962;2022-08-03T03:46:01;100759.41;;;28.65;43.00
45813;BME280;31519;45.408;10.962;2022-08-03T03:48:29;100764.75;;;28.53;43.02
45813;BME280;31519;45.408;10.962;2022-08-03T03:50:59;100765.13;;;28.55;43.08
45813;BME280;31519;45.408;10.962;2022-08-03T03:53:28;100764.06;;;28.49;43.24
45813;BME280;31519;45.408;10.962;2022-08-03T03:55:58;100761.09;;;28.40;43.28
45813;BME280;31519;45.408;10.962;2022-08-03T03:58:31;100762.81;;;28.30;43.40
45813;BME280;31519;45.408;10.962;2022-08-03T04:00:59;100754.00;;;28.19;43.88
45813;BME280;31519;45.408;10.962;2022-08-03T04:03:28;100759.28;;;28.53;43.19
45813;BME280;31519;45.408;10.962;2022-08-03T04:05:57;100761.13;;;28.59;43.06
45813;BME280;31519;45.408;10.962;2022-08-03T04:08:44;100759.66;;;28.75;42.91
45813;BME280;31519;45.408;10.962;2022-08-03T04:11:30;100759.34;;;28.69;43.00
45813;BME280;31519;45.408;10.962;2022-08-03T04:14:11;100763.78;;;28.63;43.09
45813;BME280;31519;45.408;10.962;2022-08-03T04:16:42;100763.28;;;28.48;43.30
45813;BME280;31519;45.408;10.962;2022-08-03T04:19:18;100768.28;;;28.30;43.99
45813;BME280;31519;45.408;10.962;2022-08-03T04:21:53;100764.75;;;28.53;43.31
45813;BME280;31519;45.408;10.962;2022-08-03T04:24:27;100767.03;;;28.35;43.67
45813;BME280;31519;45.408;10.962;2022-08-03T04:26:59;100762.63;;;28.41;43.67
45813;BME280;31519;45.408;10.962;2022-08-03T04:29:32;100766.91;;;28.42;43.51
45813;BME280;31519;45.408;10.962;2022-08-03T04:32:05;100765.31;;;28.44;43.92
45813;BME280;31519;45.408;10.962;2022-08-03T04:34:34;100774.31;;;28.45;43.50
45813;BME280;31519;45.408;10.962;2022-08-03T04:37:10;100776.56;;;28.50;43.39
45813;BME280;31519;45.408;10.962;2022-08-03T04:39:40;100781.84;;;28.60;43.43
45813;BME280;31519;45.408;10.962;2022-08-03T04:42:13;100780.16;;;28.67;43.39
45813;BME280;31519;45.408;10.962;2022-08-03T04:44:43;100781.63;;;28.94;42.80
45813;BME280;31519;45.408;10.962;2022-08-03T04:47:12;100782.69;;;29.00;42.48
45813;BME280;31519;45.408;10.962;2022-08-03T04:49:41;100784.34;;;29.14;42.30
45813;BME280;31519;45.408;10.962;2022-08-03T04:52:11;100789.28;;;29.03;43.15
45813;BME280;31519;45.408;10.962;2022-08-03T04:54:40;100788.13;;;29.20;42.73
45813;BME280;31519;45.408;10.962;2022-08-03T04:57:15;100795.31;;;29.14;42.73
45813;BME280;31519;45.408;10.962;2022-08-03T04:59:51;100792.59;;;29.14;42.74
45813;BME280;31519;45.408;10.962;2022-08-03T05:02:30;100799.97;;;29.17;42.43
45813;BME280;31519;45.408;10.962;2022-08-03T05:04:59;100796.03;;;29.18;42.42
45813;BME280;31519;45.408;10.962;2022-08-03T05:07:27;100799.47;;;29.02;42.90
45813;BME280;31519;45.408;10.962;2022-08-03T05:10:05;100802.22;;;29.42;42.35
45813;BME280;31519;45.408;10.962;2022-08-03T05:12:47;100799.47;;;29.22;42.31
45813;BME280;31519;45.408;10.962;2022-08-03T05:15:18;100805.03;;;29.38;42.06
45813;BME280;31519;45.408;10.962;2022-08-03T05:17:47;100794.53;;;29.33;42.58
45813;BME280;31519;45.408;10.962;2022-08-03T05:20:15;100802.91;;;29.06;43.33
45813;BME280;31519;45.408;10.962;2022-08-03T05:22:45;100795.25;;;29.18;43.34
45813;BME280;31519;45.408;10.962;2022-08-03T05:25:14;100798.69;;;29.41;42.50
45813;BME280;31519;45.408;10.962;2022-08-03T05:27:46;100796.34;;;29.76;41.48
45813;BME280;31519;45.408;10.962;2022-08-03T05:30:15;100808.66;;;29.87;41.42
45813;BME280;31519;45.408;10.962;2022-08-03T05:33:02;100800.56;;;29.80;41.23
45813;BME280;31519;45.408;10.962;2022-08-03T05:35:30;100800.69;;;29.57;42.12
45813;BME280;31519;45.408;10.962;2022-08-03T05:38:19;100801.97;;;29.88;41.23
45813;BME280;31519;45.408;10.962;2022-08-03T05:40:59;100814.84;;;29.91;40.95
45813;BME280;31519;45.408;10.962;2022-08-03T05:43:47;100805.63;;;29.82;41.25
45813;BME280;31519;45.408;10.962;2022-08-03T05:46:16;100805.78;;;29.75;41.73
45813;BME280;31519;45.408;10.962;2022-08-03T05:48:44;100808.84;;;29.97;41.67
45813;BME280;31519;45.408;10.962;2022-08-03T05:51:12;100806.16;;;29.93;41.22
45813;BME280;31519;45.408;10.962;2022-08-03T05:53:41;100802.09;;;29.81;41.64
45813;BME280;31519;45.408;10.962;2022-08-03T05:56:11;100808.75;;;30.00;40.73
45813;BME280;31519;45.408;10.962;2022-08-03T05:58:44;100804.47;;;29.99;41.13
45813;BME280;31519;45.408;10.962;2022-08-03T06:01:15;100805.56;;;30.18;40.71
45813;BME280;31519;45.408;10.962;2022-08-03T06:03:46;100801.38;;;30.46;39.78
45813;BME280;31519;45.408;10.962;2022-08-03T06:06:15;100806.09;;;30.45;39.60
45813;BME280;31519;45.408;10.962;2022-08-03T06:08:44;100812.28;;;30.78;39.41
45813;BME280;31519;45.408;10.962;2022-08-03T06:11:13;100814.91;;;30.98;39.19
45813;BME280;31519;45.408;10.962;2022-08-03T06:13:42;100813.31;;;30.84;38.93
45813;BME280;31519;45.408;10.962;2022-08-03T06:16:10;100824.53;;;30.90;39.14
45813;BME280;31519;45.408;10.962;2022-08-03T06:18:38;100829.25;;;30.89;38.67
45813;BME280;31519;45.408;10.962;2022-08-03T06:21:07;100833.47;;;31.22;38.06
45813;BME280;31519;45.408;10.962;2022-08-03T06:23:44;100828.06;;;31.06;38.99
45813;BME280;31519;45.408;10.962;2022-08-03T06:26:23;100834.16;;;30.98;39.55
45813;BME280;31519;45.408;10.962;2022-08-03T06:28:52;100835.78;;;31.24;39.03
45813;BME280;31519;45.408;10.962;2022-08-03T06:31:23;100844.69;;;31.15;38.73
45813;BME280;31519;45.408;10.962;2022-08-03T06:34:04;100843.84;;;31.31;38.29
45813;BME280;31519;45.408;10.962;2022-08-03T06:36:52;100840.50;;;32.03;37.60
45813;BME280;31519;45.408;10.962;2022-08-03T06:39:28;100847.88;;;32.06;37.86
45813;BME280;31519;45.408;10.962;2022-08-03T06:41:56;100846.88;;;32.00;37.33
45813;BME280;31519;45.408;10.962;2022-08-03T06:44:25;100846.69;;;31.94;37.17
45813;BME280;31519;45.408;10.962;2022-08-03T06:46:53;100853.16;;;31.62;37.08
45813;BME280;31519;45.408;10.962;2022-08-03T06:49:21;100854.84;;;31.98;36.37
45813;BME280;31519;45.408;10.962;2022-08-03T06:51:49;100858.13;;;32.05;36.28
45813;BME280;31519;45.408;10.962;2022-08-03T06:54:34;100860.78;;;32.34;35.97
45813;BME280;31519;45.408;10.962;2022-08-03T06:57:03;100859.91;;;32.25;35.68
45813;BME280;31519;45.408;10.962;2022-08-03T06:59:31;100852.75;;;32.62;35.72
45813;BME280;31519;45.408;10.962;2022-08-03T07:02:19;100861.81;;;32.49;35.11
45813;BME280;31519;45.408;10.962;2022-08-03T07:04:48;100856.59;;;32.30;35.29
45813;BME280;31519;45.408;10.962;2022-08-03T07:07:16;100859.69;;;32.06;35.90
45813;BME280;31519;45.408;10.962;2022-08-03T07:09:46;100859.44;;;32.39;34.95
45813;BME280;31519;45.408;10.962;2022-08-03T07:12:28;100863.75;;;32.27;35.29
45813;BME280;31519;45.408;10.962;2022-08-03T07:14:57;100864.78;;;32.55;34.77
45813;BME280;31519;45.408;10.962;2022-08-03T07:17:31;100858.25;;;31.89;36.45
45813;BME280;31519;45.408;10.962;2022-08-03T07:20:02;100858.88;;;32.44;35.38
45813;BME280;31519;45.408;10.962;2022-08-03T07:22:30;100866.69;;;33.14;34.36
45813;BME280;31519;45.408;10.962;2022-08-03T07:24:59;100866.75;;;33.45;33.23
45813;BME280;31519;45.408;10.962;2022-08-03T07:27:28;100868.28;;;33.03;33.31
45813;BME280;31519;45.408;10.962;2022-08-03T07:29:57;100866.47;;;33.52;33.00
45813;BME280;31519;45.408;10.962;2022-08-03T07:32:26;100871.16;;;33.95;32.14
45813;BME280;31519;45.408;10.962;2022-08-03T07:34:55;100853.41;;;33.74;32.23
45813;BME280;31519;45.408;10.962;2022-08-03T07:37:29;100856.53;;;33.33;32.91
45813;BME280;31519;45.408;10.962;2022-08-03T07:39:58;100861.16;;;32.92;32.97
45813;BME280;31519;45.408;10.962;2022-08-03T07:42:27;100862.50;;;33.53;32.13
45813;BME280;31519;45.408;10.962;2022-08-03T07:44:56;100862.56;;;32.97;32.75
45813;BME280;31519;45.408;10.962;2022-08-03T07:47:27;100859.50;;;33.38;32.46
45813;BME280;31519;45.408;10.962;2022-08-03T07:50:04;100873.38;;;33.48;32.27
45813;BME280;31519;45.408;10.962;2022-08-03T07:52:35;100871.13;;;33.86;31.91
45813;BME280;31519;45.408;10.962;2022-08-03T07:55:19;100873.16;;;33.95;31.71
45813;BME280;31519;45.408;10.962;2022-08-03T07:58:07;100872.56;;;33.69;31.77
45813;BME280;31519;45.408;10.962;2022-08-03T08:00:36;100868.56;;;33.39;32.13
45813;BME280;31519;45.408;10.962;2022-08-03T08:03:05;100867.56;;;33.76;31.41
45813;BME280;31519;45.408;10.962;2022-08-03T08:05:33;100869.56;;;33.54;31.35
45813;BME280;31519;45.408;10.962;2022-08-03T08:08:02;100871.25;;;33.08;32.13
45813;BME280;31519;45.408;10.962;2022-08-03T08:10:30;100869.38;;;33.70;31.41
45813;BME280;31519;45.408;10.962;2022-08-03T08:13:00;100870.94;;;34.20;31.00
45813;BME280;31519;45.408;10.962;2022-08-03T08:15:28;100871.28;;;34.22;30.71
45813;BME280;31519;45.408;10.962;2022-08-03T08:18:00;100878.34;;;33.31;31.84
45813;BME280;31519;45.408;10.962;2022-08-03T08:20:30;100870.72;;;33.01;32.64
45813;BME280;31519;45.408;10.962;2022-08-03T08:23:04;100871.88;;;33.77;31.10
45813;BME280;31519;45.408;10.962;2022-08-03T08:25:52;100869.41;;;34.28;30.63
45813;BME280;31519;45.408;10.962;2022-08-03T08:28:21;100867.59;;;34.44;29.52
45813;BME280;31519;45.408;10.962;2022-08-03T08:31:00;100864.78;;;33.46;32.29
45813;BME280;31519;45.408;10.962;2022-08-03T08:33:29;100861.78;;;34.02;31.66
45813;BME280;31519;45.408;10.962;2022-08-03T08:36:17;100870.31;;;33.24;32.26
45813;BME280;31519;45.408;10.962;2022-08-03T08:38:46;100861.84;;;33.71;31.22
45813;BME280;31519;45.408;10.962;2022-08-03T08:41:14;100868.59;;;34.10;30.34
45813;BME280;31519;45.408;10.962;2022-08-03T08:43:42;100854.72;;;34.41;29.71
45813;BME280;31519;45.408;10.962;2022-08-03T08:46:12;100864.59;;;34.96;28.81
45813;BME280;31519;45.408;10.962;2022-08-03T08:48:52;100856.25;;;35.33;28.57
45813;BME280;31519;45.408;10.962;2022-08-03T08:51:21;100861.34;;;34.80;29.84
45813;BME280;31519;45.408;10.962;2022-08-03T08:54:17;100868.25;;;35.11;28.90
45813;BME280;31519;45.408;10.962;2022-08-03T08:56:51;100864.13;;;35.16;29.39
45813;BME280;31519;45.408;10.962;2022-08-03T08:59:21;100866.56;;;35.32;29.32
45813;BME280;31519;45.408;10.962;2022-08-03T09:01:49;100868.09;;;35.33;29.40
45813;BME280;31519;45.408;10.962;2022-08-03T09:04:17;100865.66;;;35.17;29.22
45813;BME280;31519;45.408;10.962;2022-08-03T09:06:45;100868.22;;;34.48;30.27
45813;BME280;31519;45.408;10.962;2022-08-03T09:09:34;100861.66;;;34.82;29.90
45813;BME280;31519;45.408;10.962;2022-08-03T09:12:22;100864.28;;;34.76;29.39
45813;BME280;31519;45.408;10.962;2022-08-03T09:15:23;100863.09;;;35.55;28.39
45813;BME280;31519;45.408;10.962;2022-08-03T09:17:54;100858.16;;;35.69;28.88
45813;BME280;31519;45.408;10.962;2022-08-03T09:20:25;100857.97;;;34.94;29.54
45813;BME280;31519;45.408;10.962;2022-08-03T09:23:04;100853.81;;;34.89;29.58
45813;BME280;31519;45.408;10.962;2022-08-03T09:25:57;100853.00;;;34.34;30.88
45813;BME280;31519;45.408;10.962;2022-08-03T09:28:34;100855.16;;;35.12;29.41
45813;BME280;31519;45.408;10.962;2022-08-03T09:31:40;100849.53;;;35.67;29.05
45813;BME280;31519;45.408;10.962;2022-08-03T09:34:12;100859.16;;;35.80;28.19
45813;BME280;31519;45.408;10.962;2022-08-03T09:36:43;100859.63;;;36.12;28.07
45813;BME280;31519;45.408;10.962;2022-08-03T09:41:46;100855.50;;;35.14;28.88
45813;BME280;31519;45.408;10.962;2022-08-03T09:44:14;100852.56;;;35.27;29.16
45813;BME280;31519;45.408;10.962;2022-08-03T09:46:54;100845.66;;;35.73;28.78
45813;BME280;31519;45.408;10.962;2022-08-03T09:49:24;100853.97;;;35.22;29.06
45813;BME280;31519;45.408;10.962;2022-08-03T09:51:53;100837.22;;;34.80;29.44
45813;BME280;31519;45.408;10.962;2022-08-03T09:54:42;100841.16;;;35.15;29.13
45813;BME280;31519;45.408;10.962;2022-08-03T09:57:24;100847.34;;;35.62;28.19
45813;BME280;31519;45.408;10.962;2022-08-03T09:59:53;100842.53;;;36.13;28.25
45813;BME280;31519;45.408;10.962;2022-08-03T10:02:42;100836.63;;;36.68;27.15
45813;BME280;31519;45.408;10.962;2022-08-03T10:05:12;100832.72;;;37.04;26.53
45813;BME280;31519;45.408;10.962;2022-08-03T10:07:48;100840.06;;;37.31;26.17
45813;BME280;31519;45.408;10.962;2022-08-03T10:10:17;100827.97;;;37.34;26.29
45813;BME280;31519;45.408;10.962;2022-08-03T10:12:58;100823.13;;;36.90;26.98
45813;BME280;31519;45.408;10.962;2022-08-03T10:15:27;100828.72;;;37.34;26.27
45813;BME280;31519;45.408;10.962;2022-08-03T10:18:15;100818.25;;;37.58;25.67
45813;BME280;31519;45.408;10.962;2022-08-03T10:20:56;100820.16;;;36.64;26.69
45813;BME280;31519;45.408;10.962;2022-08-03T10:23:32;100815.63;;;36.28;26.59
45813;BME280;31519;45.408;10.962;2022-08-03T10:26:03;100824.53;;;35.76;27.39
45813;BME280;31519;45.408;10.962;2022-08-03T10:28:35;100814.94;;;36.57;26.04
45813;BME280;31519;45.408;10.962;2022-08-03T10:31:13;100814.75;;;37.28;25.71
45813;BME280;31519;45.408;10.962;2022-08-03T10:33:43;100804.66;;;36.34;26.75
45813;BME280;31519;45.408;10.962;2022-08-03T10:36:22;100816.53;;;36.73;26.76
45813;BME280;31519;45.408;10.962;2022-08-03T10:38:51;100807.56;;;36.16;27.30
45813;BME280;31519;45.408;10.962;2022-08-03T10:41:23;100798.81;;;36.32;26.96
45813;BME280;31519;45.408;10.962;2022-08-03T10:44:22;100804.59;;;36.43;26.81
45813;BME280;31519;45.408;10.962;2022-08-03T10:46:47;100791.47;;;35.96;27.57
45813;BME280;31519;45.408;10.962;2022-08-03T10:49:18;100792.25;;;35.96;27.94
45813;BME280;31519;45.408;10.962;2022-08-03T10:52:03;100789.75;;;35.98;27.26
45813;BME280;31519;45.408;10.962;2022-08-03T10:54:52;100793.81;;;35.55;27.94
45813;BME280;31519;45.408;10.962;2022-08-03T10:57:53;100789.84;;;36.13;27.39
45813;BME280;31519;45.408;10.962;2022-08-03T11:00:27;100781.09;;;36.06;27.81
45813;BME280;31519;45.408;10.962;2022-08-03T11:05:32;100775.75;;;36.79;26.79
45813;BME280;31519;45.408;10.962;2022-08-03T11:08:22;100790.09;;;36.63;27.31
45813;BME280;31519;45.408;10.962;2022-08-03T11:10:53;100782.69;;;36.21;27.79
45813;BME280;31519;45.408;10.962;2022-08-03T11:13:24;100784.59;;;36.54;27.11
45813;BME280;31519;45.408;10.962;2022-08-03T11:15:55;100780.91;;;36.33;27.29
45813;BME280;31519;45.408;10.962;2022-08-03T11:18:29;100774.53;;;36.80;26.44
45813;BME280;31519;45.408;10.962;2022-08-03T11:20:59;100768.94;;;36.65;26.87
45813;BME280;31519;45.408;10.962;2022-08-03T11:23:41;100768.38;;;37.05;26.41
45813;BME280;31519;45.408;10.962;2022-08-03T11:26:33;100773.53;;;36.68;27.32
45813;BME280;31519;45.408;10.962;2022-08-03T11:29:30;100768.75;;;36.69;26.69
45813;BME280;31519;45.408;10.962;2022-08-03T11:31:58;100767.78;;;36.72;26.50
45813;BME280;31519;45.408;10.962;2022-08-03T11:34:26;100770.50;;;36.66;26.44
45813;BME280;31519;45.408;10.962;2022-08-03T11:37:33;100765.88;;;36.63;27.02
45813;BME280;31519;45.408;10.962;2022-08-03T11:40:02;100763.28;;;36.21;26.73
45813;BME280;31519;45.408;10.962;2022-08-03T11:45:06;100769.72;;;36.80;26.49
45813;BME280;31519;45.408;10.962;2022-08-03T11:47:37;100770.88;;;37.03;26.09
45813;BME280;31519;45.408;10.962;2022-08-03T11:50:17;100763.75;;;37.81;25.07
45813;BME280;31519;45.408;10.962;2022-08-03T11:52:48;100752.09;;;37.13;25.75
45813;BME280;31519;45.408;10.962;2022-08-03T11:55:18;100764.06;;;37.04;26.20
45813;BME280;31519;45.408;10.962;2022-08-03T11:57:49;100754.63;;;36.58;26.58
45813;BME280;31519;45.408;10.962;2022-08-03T12:00:37;100745.09;;;37.87;25.27
45813;BME280;31519;45.408;10.962;2022-08-03T12:03:08;100749.47;;;38.80;24.09
45813;BME280;31519;45.408;10.962;2022-08-03T12:05:42;100735.91;;;36.97;25.30
45813;BME280;31519;45.408;10.962;2022-08-03T12:10:54;100732.00;;;37.03;25.89
45813;BME280;31519;45.408;10.962;2022-08-03T12:13:23;100749.69;;;36.91;26.53
45813;BME280;31519;45.408;10.962;2022-08-03T12:16:21;100744.44;;;36.78;26.62
45813;BME280;31519;45.408;10.962;2022-08-03T12:18:59;100739.16;;;37.24;26.14
45813;BME280;31519;45.408;10.962;2022-08-03T12:21:28;100734.00;;;36.88;26.11
45813;BME280;31519;45.408;10.962;2022-08-03T12:24:03;100738.31;;;36.89;25.76
45813;BME280;31519;45.408;10.962;2022-08-03T12:26:44;100728.81;;;36.96;25.88
45813;BME280;31519;45.408;10.962;2022-08-03T12:29:26;100734.97;;;37.14;25.70
45813;BME280;31519;45.408;10.962;2022-08-03T12:31:54;100731.59;;;37.25;25.71
45813;BME280;31519;45.408;10.962;2022-08-03T12:34:23;100733.28;;;37.72;25.09
45813;BME280;31519;45.408;10.962;2022-08-03T12:36:57;100734.34;;;38.15;24.25
45813;BME280;31519;45.408;10.962;2022-08-03T12:39:27;100732.47;;;38.06;24.77
45813;BME280;31519;45.408;10.962;2022-08-03T12:41:58;100735.09;;;37.95;25.08
45813;BME280;31519;45.408;10.962;2022-08-03T12:44:31;100731.38;;;37.28;25.20
45813;BME280;31519;45.408;10.962;2022-08-03T12:47:02;100730.72;;;37.89;24.66
45813;BME280;31519;45.408;10.962;2022-08-03T12:49:46;100734.47;;;37.65;25.06
45813;BME280;31519;45.408;10.962;2022-08-03T12:52:16;100729.91;;;38.03;25.07
45813;BME280;31519;45.408;10.962;2022-08-03T12:54:55;100736.34;;;37.94;24.76
45813;BME280;31519;45.408;10.962;2022-08-03T12:57:41;100732.16;;;37.29;26.01
45813;BME280;31519;45.408;10.962;2022-08-03T13:00:11;100741.06;;;37.68;25.17
45813;BME280;31519;45.408;10.962;2022-08-03T13:03:00;100732.84;;;38.40;24.42
45813;BME280;31519;45.408;10.962;2022-08-03T13:05:49;100728.78;;;38.61;24.32
45813;BME280;31519;45.408;10.962;2022-08-03T13:08:22;100735.06;;;38.56;24.43
45813;BME280;31519;45.408;10.962;2022-08-03T13:10:51;100715.28;;;38.80;23.95
45813;BME280;31519;45.408;10.962;2022-08-03T13:13:37;100722.03;;;38.22;24.33
45813;BME280;31519;45.408;10.962;2022-08-03T13:16:05;100715.03;;;38.32;24.56
45813;BME280;31519;45.408;10.962;2022-08-03T13:18:33;100718.53;;;38.78;24.26
45813;BME280;31519;45.408;10.962;2022-08-03T13:21:02;100712.00;;;39.13;23.50
45813;BME280;31519;45.408;10.962;2022-08-03T13:23:30;100710.69;;;38.25;24.29
45813;BME280;31519;45.408;10.962;2022-08-03T13:25:59;100720.66;;;38.37;24.15
45813;BME280;31519;45.408;10.962;2022-08-03T13:28:27;100712.13;;;38.67;23.72
45813;BME280;31519;45.408;10.962;2022-08-03T13:30:55;100714.75;;;39.07;23.59
45813;BME280;31519;45.408;10.962;2022-08-03T13:33:23;100712.44;;;39.37;22.86
45813;BME280;31519;45.408;10.962;2022-08-03T13:35:51;100701.97;;;40.56;22.39
45813;BME280;31519;45.408;10.962;2022-08-03T13:38:19;100703.25;;;41.05;22.05